createdAt,value
2022-08-22T00:02:30.163Z,4.73
2022-08-22T00:02:56.171Z,5.27
2022-08-22T00:05:06.441Z,4.93
2022-08-22T00:07:44.011Z,5.37
2022-08-22T00:10:25.343Z,5.30
2022-08-22T00:13:00.162Z,4.67
2022-08-22T00:15:42.979Z,4.37
2022-08-22T00:18:16.552Z,4.33
2022-08-22T00:20:48.295Z,4.77
2022-08-22T00:23:21.892Z,4.50
2022-08-22T00:25:58.654Z,5.27
2022-08-22T00:28:32.345Z,5.10
2022-08-22T00:31:03.879Z,4.53
2022-08-22T00:33:41.599Z,4.77
2022-08-22T00:36:17.605Z,4.57
2022-08-22T00:38:51.867Z,4.73
2022-08-22T00:41:45.615Z,4.57
2022-08-22T00:44:36.619Z,5.83
2022-08-22T00:47:21.398Z,5.67
2022-08-22T00:50:15.936Z,5.53
2022-08-22T00:53:01.511Z,5.47
2022-08-22T00:55:43.797Z,5.30
2022-08-22T00:58:38.367Z,5.20
2022-08-22T01:01:09.895Z,5.40
2022-08-22T01:04:09.604Z,5.27
2022-08-22T01:06:46.207Z,5.10
2022-08-22T01:09:27.103Z,6.40
2022-08-22T01:12:23.070Z,4.93
2022-08-22T01:14:59.138Z,5.53
2022-08-22T01:18:09.732Z,5.50
2022-08-22T01:21:16.328Z,5.73
2022-08-22T01:24:24.490Z,4.70
2022-08-22T01:27:24.570Z,6.13
2022-08-22T01:30:28.557Z,5.13
2022-08-22T01:33:24.645Z,4.83
2022-08-22T01:36:31.784Z,4.80
2022-08-22T01:39:28.866Z,4.83
2022-08-22T01:42:23.616Z,5.53
2022-08-22T01:45:09.409Z,5.80
2022-08-22T01:47:44.191Z,5.40
2022-08-22T01:50:22.071Z,5.67
2022-08-22T01:52:54.430Z,5.20
2022-08-22T01:55:32.474Z,5.80
2022-08-22T01:58:04.566Z,4.97
2022-08-22T02:00:50.864Z,6.07
2022-08-22T02:03:25.769Z,5.43
2022-08-22T02:06:00.941Z,5.20
2022-08-22T02:08:39.296Z,5.37
2022-08-22T02:11:11.867Z,5.40
2022-08-22T02:13:55.411Z,5.93
2022-08-22T02:16:36.295Z,4.90
2022-08-22T02:19:19.352Z,4.53
2022-08-22T02:21:55.277Z,5.30
2022-08-22T02:24:37.171Z,5.27
2022-08-22T02:27:12.979Z,5.10
2022-08-22T02:29:46.529Z,5.70
2022-08-22T02:32:23.622Z,5.80
2022-08-22T02:35:00.800Z,5.93
2022-08-22T02:37:37.479Z,5.90
2022-08-22T02:40:13.483Z,4.73
2022-08-22T02:42:50.476Z,4.80
2022-08-22T02:45:29.599Z,5.13
2022-08-22T02:48:05.128Z,5.20
2022-08-22T02:50:46.444Z,5.47
2022-08-22T02:53:22.132Z,5.20
2022-08-22T02:55:57.233Z,5.77
2022-08-22T02:58:36.528Z,5.00
2022-08-22T03:01:22.079Z,5.63
2022-08-22T03:03:51.226Z,4.70
2022-08-22T03:06:39.623Z,4.97
2022-08-22T03:12:09.226Z,6.13
2022-08-22T03:14:45.443Z,6.43
2022-08-22T03:17:19.283Z,6.30
2022-08-22T03:19:57.377Z,5.60
2022-08-22T03:22:36.686Z,6.10
2022-08-22T03:25:11.188Z,5.80
2022-08-22T03:27:44.074Z,5.90
2022-08-22T03:30:21.396Z,5.80
2022-08-22T03:32:54.426Z,6.23
2022-08-22T03:35:34.073Z,6.50
2022-08-22T03:38:19.614Z,6.70
2022-08-22T03:41:03.025Z,6.37
2022-08-22T03:43:58.259Z,6.00
2022-08-22T03:47:03.401Z,6.10
2022-08-22T03:50:14.036Z,6.70
2022-08-22T03:53:15.225Z,7.03
2022-08-22T03:56:20.690Z,7.40
2022-08-22T03:59:21.365Z,6.57
2022-08-22T04:02:41.883Z,6.93
2022-08-22T04:05:41.065Z,5.93
2022-08-22T04:08:26.631Z,6.33
2022-08-22T04:11:26.841Z,6.60
2022-08-22T04:14:19.084Z,6.47
2022-08-22T04:17:32.226Z,6.40
2022-08-22T04:20:41.602Z,6.93
2022-08-22T04:23:36.972Z,7.20
2022-08-22T04:26:14.074Z,6.33
2022-08-22T04:28:46.603Z,6.60
2022-08-22T04:31:18.377Z,6.37
2022-08-22T04:33:56.484Z,6.63
2022-08-22T04:36:30.273Z,6.47
2022-08-22T04:39:03.696Z,5.87
2022-08-22T04:41:43.024Z,7.00
2022-08-22T04:44:16.259Z,6.13
2022-08-22T04:46:50.009Z,7.27
2022-08-22T04:49:27.538Z,6.73
2022-08-22T04:52:06.298Z,6.23
2022-08-22T04:54:56.333Z,5.47
2022-08-22T04:57:36.642Z,5.83
2022-08-22T05:00:08.129Z,6.33
2022-08-22T05:02:41.151Z,5.83
2022-08-22T05:05:15.205Z,5.37
2022-08-22T05:07:47.161Z,6.67
2022-08-22T05:10:24.650Z,5.33
2022-08-22T05:12:56.534Z,6.23
2022-08-22T05:15:29.189Z,5.47
2022-08-22T05:18:06.628Z,5.20
2022-08-22T05:20:39.368Z,4.80
2022-08-22T05:23:17.197Z,5.30
2022-08-22T05:25:50.843Z,4.95
2022-08-22T05:28:26.659Z,5.40
2022-08-22T05:30:55.672Z,5.68
2022-08-22T05:33:28.122Z,4.60
2022-08-22T05:36:02.132Z,5.18
2022-08-22T05:38:32.528Z,5.10
2022-08-22T05:41:06.786Z,6.10
2022-08-22T05:43:40.774Z,4.60
2022-08-22T05:46:14.046Z,5.45
2022-08-22T05:48:46.384Z,4.57
2022-08-22T05:51:21.600Z,4.50
2022-08-22T05:53:56.780Z,4.68
2022-08-22T05:56:36.038Z,4.65
2022-08-22T05:59:11.543Z,4.50
2022-08-22T06:01:47.878Z,4.35
2022-08-22T06:04:24.305Z,4.70
2022-08-22T06:06:58.376Z,5.15
2022-08-22T06:09:35.286Z,4.45
2022-08-22T06:12:18.195Z,5.07
2022-08-22T06:14:59.883Z,3.83
2022-08-22T06:17:33.959Z,4.38
2022-08-22T06:20:03.519Z,4.00
2022-08-22T06:22:38.314Z,3.70
2022-08-22T06:25:13.923Z,4.75
2022-08-22T06:27:48.877Z,3.80
2022-08-22T06:30:23.094Z,4.13
2022-08-22T06:32:59.238Z,4.57
2022-08-22T06:35:53.977Z,4.43
2022-08-22T06:38:29.273Z,4.43
2022-08-22T06:40:58.289Z,4.25
2022-08-22T06:43:27.270Z,5.38
2022-08-22T06:45:55.693Z,4.03
2022-08-22T06:48:25.030Z,4.40
2022-08-22T06:50:58.521Z,3.92
2022-08-22T06:53:35.414Z,4.70
2022-08-22T06:56:05.636Z,4.10
2022-08-22T06:58:38.541Z,4.18
2022-08-22T07:01:12.333Z,3.78
2022-08-22T07:03:44.887Z,3.65
2022-08-22T07:06:16.966Z,3.90
2022-08-22T07:08:47.688Z,3.90
2022-08-22T07:11:21.752Z,3.63
2022-08-22T07:13:54.882Z,3.00
2022-08-22T07:16:31.378Z,3.85
2022-08-22T07:18:59.769Z,3.63
2022-08-22T07:21:30.979Z,4.13
2022-08-22T07:24:04.002Z,3.15
2022-08-22T07:26:43.121Z,3.38
2022-08-22T07:29:23.582Z,3.65
2022-08-22T07:31:59.721Z,3.70
2022-08-22T07:34:43.071Z,3.40
2022-08-22T07:37:17.762Z,3.10
2022-08-22T07:39:53.727Z,3.55
2022-08-22T07:42:29.743Z,2.75
2022-08-22T07:45:06.350Z,3.20
2022-08-22T07:47:52.237Z,2.92
2022-08-22T07:50:24.789Z,3.50
2022-08-22T07:52:54.438Z,3.60
2022-08-22T07:55:25.810Z,2.72
2022-08-22T07:57:57.662Z,2.90
2022-08-22T08:00:27.151Z,2.50
2022-08-22T08:02:59.405Z,2.55
2022-08-22T08:05:31.028Z,2.35
2022-08-22T08:08:01.121Z,3.30
2022-08-22T08:10:34.511Z,2.75
2022-08-22T08:13:07.612Z,1.95
2022-08-22T08:15:39.315Z,2.30
2022-08-22T08:18:12.573Z,2.40
2022-08-22T08:20:40.916Z,2.50
2022-08-22T08:23:19.492Z,2.53
2022-08-22T08:26:09.524Z,2.67
2022-08-22T08:28:41.912Z,2.55
2022-08-22T08:31:18.599Z,2.63
2022-08-22T08:33:49.983Z,2.30
2022-08-22T08:36:29.238Z,2.13
2022-08-22T08:39:02.378Z,2.45
2022-08-22T08:42:04.224Z,2.17
2022-08-22T08:44:57.036Z,2.22
2022-08-22T08:47:40.234Z,2.00
2022-08-22T08:50:25.077Z,1.90
2022-08-22T08:53:42.812Z,1.60
2022-08-22T08:56:25.304Z,2.40
2022-08-22T08:59:10.001Z,2.35
2022-08-22T09:02:13.723Z,2.40
2022-08-22T09:05:18.660Z,3.30
2022-08-22T09:07:59.745Z,2.42
2022-08-22T09:10:40.453Z,2.22
2022-08-22T09:13:28.312Z,2.10
2022-08-22T09:16:23.594Z,2.38
2022-08-22T09:19:23.242Z,2.15
2022-08-22T09:22:50.049Z,1.98
2022-08-22T09:25:24.968Z,2.70
2022-08-22T09:27:59.684Z,2.45
2022-08-22T09:30:45.980Z,2.00
2022-08-22T09:33:31.157Z,1.80
2022-08-22T09:38:56.732Z,2.10
2022-08-22T09:41:35.603Z,1.77
2022-08-22T09:44:13.708Z,1.80
2022-08-22T09:46:58.194Z,1.67
2022-08-22T09:49:41.279Z,2.00
2022-08-22T09:52:34.089Z,2.00
2022-08-22T09:55:13.415Z,1.83
2022-08-22T09:57:52.673Z,2.20
2022-08-22T10:00:25.992Z,2.50
2022-08-22T10:03:06.224Z,2.33
2022-08-22T10:05:49.601Z,2.30
2022-08-22T10:08:34.384Z,1.80
2022-08-22T10:11:22.909Z,2.22
2022-08-22T10:14:01.469Z,2.05
2022-08-22T10:16:45.886Z,1.75
2022-08-22T10:19:23.497Z,2.50
2022-08-22T10:22:24.565Z,2.22
2022-08-22T10:25:15.306Z,2.25
2022-08-22T10:27:56.704Z,2.55
2022-08-22T10:30:28.411Z,2.03
2022-08-22T10:33:03.476Z,2.15
2022-08-22T10:35:38.957Z,2.03
2022-08-22T10:38:15.966Z,2.28
2022-08-22T10:40:52.600Z,2.53
2022-08-22T10:43:29.097Z,2.15
2022-08-22T10:46:03.502Z,2.22
2022-08-22T10:48:40.939Z,1.83
2022-08-22T10:51:19.949Z,1.95
2022-08-22T10:54:24.015Z,2.47
2022-08-22T10:56:57.770Z,2.03
2022-08-22T10:59:39.390Z,1.80
2022-08-22T11:02:24.734Z,2.17
2022-08-22T11:05:22.532Z,1.73
2022-08-22T11:08:01.611Z,1.92
2022-08-22T11:10:41.786Z,1.52
2022-08-22T11:13:16.792Z,1.80
2022-08-22T11:15:59.867Z,1.83
2022-08-22T11:18:58.013Z,1.42
2022-08-22T11:21:42.826Z,2.10
2022-08-22T11:24:46.551Z,1.80
2022-08-22T11:27:38.222Z,1.95
2022-08-22T11:30:18.216Z,2.00
2022-08-22T11:33:13.803Z,1.98
2022-08-22T11:35:46.221Z,1.70
2022-08-22T11:38:32.079Z,1.88
2022-08-22T11:41:05.473Z,1.50
2022-08-22T11:43:47.422Z,2.28
2022-08-22T11:46:20.328Z,1.63
2022-08-22T11:49:25.625Z,2.20
2022-08-22T11:52:04.238Z,1.58
2022-08-22T11:54:48.559Z,1.60
2022-08-22T11:57:30.667Z,1.50
2022-08-22T12:00:16.860Z,1.75
2022-08-22T12:03:17.998Z,1.75
2022-08-22T12:05:49.366Z,1.95
2022-08-22T12:08:26.486Z,1.70
2022-08-22T12:10:58.849Z,1.73
2022-08-22T12:13:49.247Z,1.80
2022-08-22T12:16:26.540Z,1.42
2022-08-22T12:19:01.801Z,2.10
2022-08-22T12:22:08.593Z,1.70
2022-08-22T12:24:49.102Z,1.88
2022-08-22T12:27:47.982Z,1.38
2022-08-22T12:30:23.385Z,2.00
2022-08-22T12:33:23.184Z,1.50
2022-08-22T12:36:04.798Z,2.20
2022-08-22T12:38:56.434Z,1.67
2022-08-22T12:42:06.794Z,1.80
2022-08-22T12:44:44.773Z,1.45
2022-08-22T12:47:32.188Z,1.80
2022-08-22T12:50:19.698Z,1.70
2022-08-22T12:53:07.584Z,2.10
2022-08-22T12:55:56.056Z,1.90
2022-08-22T12:58:40.347Z,1.77
2022-08-22T13:01:11.510Z,1.80
2022-08-22T13:03:46.537Z,1.90
2022-08-22T13:06:54.747Z,1.42
2022-08-22T13:09:30.807Z,1.73
2022-08-22T13:12:04.377Z,1.65
2022-08-22T13:14:34.986Z,1.52
2022-08-22T13:17:23.782Z,2.22
2022-08-22T13:20:04.624Z,1.77
2022-08-22T13:22:36.502Z,1.60
2022-08-22T13:25:09.854Z,1.50
2022-08-22T13:27:51.008Z,2.15
2022-08-22T13:30:37.677Z,1.80
2022-08-22T13:33:09.930Z,1.70
2022-08-22T13:35:51.679Z,1.55
2022-08-22T13:38:26.203Z,2.00
2022-08-22T13:40:56.849Z,1.73
2022-08-22T13:43:29.754Z,1.55
2022-08-22T13:46:01.977Z,1.98
2022-08-22T13:48:32.478Z,1.65
2022-08-22T13:51:09.182Z,1.70
2022-08-22T13:54:00.449Z,2.10
2022-08-22T13:56:36.126Z,1.60
2022-08-22T13:59:09.684Z,1.67
2022-08-22T14:01:49.829Z,1.70
2022-08-22T14:04:32.146Z,1.83
2022-08-22T14:07:28.142Z,2.00
2022-08-22T14:10:02.768Z,1.90
2022-08-22T14:12:50.153Z,1.98
2022-08-22T14:15:24.209Z,1.80
2022-08-22T14:17:56.681Z,2.55
2022-08-22T14:20:33.644Z,3.08
2022-08-22T14:23:08.041Z,4.10
2022-08-22T14:25:40.594Z,1.63
2022-08-22T14:28:12.386Z,2.17
2022-08-22T14:30:59.480Z,1.88
2022-08-22T14:33:35.634Z,1.65
2022-08-22T14:36:14.006Z,1.92
2022-08-22T14:38:47.521Z,2.10
2022-08-22T14:41:55.510Z,1.90
2022-08-22T14:44:22.462Z,1.77
2022-08-22T14:46:56.948Z,1.45
2022-08-22T14:49:45.248Z,1.83
2022-08-22T14:52:29.713Z,2.00
2022-08-22T14:55:08.367Z,1.75
2022-08-22T14:57:42.960Z,2.28
2022-08-22T15:00:13.554Z,2.03
2022-08-22T15:02:43.084Z,2.90
2022-08-22T15:05:17.984Z,1.50
2022-08-22T15:07:55.448Z,1.58
2022-08-22T15:10:31.780Z,1.98
2022-08-22T15:13:07.894Z,1.95
2022-08-22T15:15:49.495Z,1.73
2022-08-22T15:18:34.693Z,1.50
2022-08-22T15:21:06.909Z,2.25
2022-08-22T15:23:45.459Z,1.75
2022-08-22T15:26:22.281Z,1.80
2022-08-22T15:28:58.821Z,1.80
2022-08-22T15:31:27.274Z,2.08
2022-08-22T15:34:07.963Z,1.88
2022-08-22T15:36:57.116Z,2.08
2022-08-22T15:39:31.289Z,2.05
2022-08-22T15:42:00.961Z,2.90
2022-08-22T15:44:34.129Z,2.53
2022-08-22T15:47:24.206Z,2.35
2022-08-22T15:50:00.588Z,1.75
2022-08-22T15:52:31.599Z,2.17
2022-08-22T15:55:21.184Z,2.20
2022-08-22T15:58:05.618Z,1.75
2022-08-22T16:00:43.870Z,2.50
2022-08-22T16:03:24.445Z,1.85
2022-08-22T16:05:56.016Z,2.08
2022-08-22T16:08:32.997Z,2.63
2022-08-22T16:11:27.548Z,2.20
2022-08-22T16:14:23.793Z,2.17
2022-08-22T16:17:03.926Z,1.90
2022-08-22T16:19:33.656Z,2.00
2022-08-22T16:22:19.598Z,1.73
2022-08-22T16:25:11.432Z,2.00
2022-08-22T16:27:56.418Z,1.90
2022-08-22T16:30:38.746Z,2.88
2022-08-22T16:33:12.198Z,2.10
2022-08-22T16:36:25.795Z,2.33
2022-08-22T16:38:57.126Z,2.15
2022-08-22T16:41:37.017Z,2.05
2022-08-22T16:44:20.360Z,2.05
2022-08-22T16:46:50.541Z,2.00
2022-08-22T16:49:29.498Z,2.70
2022-08-22T16:52:34.935Z,2.00
2022-08-22T16:55:04.944Z,1.88
2022-08-22T16:57:59.431Z,2.03
2022-08-22T17:00:38.540Z,2.67
2022-08-22T17:03:15.309Z,2.67
2022-08-22T17:05:51.134Z,1.87
2022-08-22T17:08:35.571Z,2.00
2022-08-22T17:11:15.314Z,1.70
2022-08-22T17:13:57.706Z,2.47
2022-08-22T17:16:45.288Z,2.20
2022-08-22T17:19:24.561Z,2.80
2022-08-22T17:21:58.717Z,1.97
2022-08-22T17:24:36.127Z,2.70
2022-08-22T17:27:09.259Z,1.83
2022-08-22T17:29:48.969Z,1.87
2022-08-22T17:32:26.026Z,2.07
2022-08-22T17:34:59.926Z,2.30
2022-08-22T17:37:42.033Z,1.90
2022-08-22T17:40:27.290Z,2.20
2022-08-22T17:43:15.108Z,1.73
2022-08-22T17:45:59.676Z,2.10
2022-08-22T17:48:34.032Z,2.20
2022-08-22T17:51:12.254Z,1.73
2022-08-22T17:53:49.138Z,1.80
2022-08-22T17:56:23.163Z,1.70
2022-08-22T17:59:01.907Z,1.70
2022-08-22T18:01:50.293Z,2.07
2022-08-22T18:04:31.187Z,2.03
2022-08-22T18:07:19.561Z,2.03
2022-08-22T18:09:53.665Z,1.90
2022-08-22T18:12:25.661Z,2.27
2022-08-22T18:15:00.523Z,3.23
2022-08-22T18:17:34.721Z,2.30
2022-08-22T18:20:07.678Z,2.50
2022-08-22T18:22:44.699Z,2.07
2022-08-22T18:25:33.500Z,2.87
2022-08-22T18:28:06.211Z,2.20
2022-08-22T18:30:48.012Z,2.00
2022-08-22T18:33:23.242Z,1.90
2022-08-22T18:36:00.195Z,2.53
2022-08-22T18:38:39.275Z,2.00
2022-08-22T18:41:14.729Z,2.23
2022-08-22T18:43:46.277Z,2.23
2022-08-22T18:46:42.058Z,2.20
2022-08-22T18:49:41.798Z,1.97
2022-08-22T18:52:20.457Z,2.17
2022-08-22T18:55:18.648Z,2.60
2022-08-22T18:58:07.522Z,2.97
2022-08-22T19:00:57.846Z,2.47
2022-08-22T19:03:36.635Z,3.00
2022-08-22T19:06:32.958Z,2.80
2022-08-22T19:09:20.490Z,3.47
2022-08-22T19:12:01.789Z,2.47
2022-08-22T19:14:59.653Z,2.27
2022-08-22T19:17:58.853Z,2.30
2022-08-22T19:20:47.762Z,2.40
2022-08-22T19:23:48.577Z,2.57
2022-08-22T19:26:38.882Z,1.80
2022-08-22T19:29:24.320Z,2.20
2022-08-22T19:31:56.327Z,2.33
2022-08-22T19:34:44.134Z,2.57
2022-08-22T19:37:30.907Z,2.63
2022-08-22T19:40:04.374Z,2.53
2022-08-22T19:42:39.755Z,2.83
2022-08-22T19:45:20.151Z,3.00
2022-08-22T19:47:59.666Z,2.60
2022-08-22T19:50:35.125Z,2.80
2022-08-22T19:53:18.504Z,2.60
2022-08-22T19:55:58.270Z,2.23
2022-08-22T19:58:38.713Z,2.47
2022-08-22T20:01:21.914Z,2.63
2022-08-22T20:03:56.182Z,2.57
2022-08-22T20:06:47.810Z,2.50
2022-08-22T20:09:41.234Z,2.70
2022-08-22T20:12:19.977Z,2.30
2022-08-22T20:14:48.586Z,3.17
2022-08-22T20:17:39.559Z,2.40
2022-08-22T20:20:19.285Z,2.63
2022-08-22T20:22:52.689Z,2.63
2022-08-22T20:25:42.658Z,3.07
2022-08-22T20:28:31.030Z,3.03
2022-08-22T20:31:01.288Z,2.70
2022-08-22T20:33:33.547Z,2.40
2022-08-22T20:36:06.630Z,2.37
2022-08-22T20:38:55.690Z,2.30
2022-08-22T20:41:28.319Z,2.60
2022-08-22T20:43:59.634Z,3.00
2022-08-22T20:46:46.157Z,3.07
2022-08-22T20:49:19.410Z,2.63
2022-08-22T20:51:54.873Z,2.80
2022-08-22T20:54:25.627Z,2.60
2022-08-22T20:56:56.173Z,2.73
2022-08-22T20:59:28.478Z,2.73
2022-08-22T21:02:03.653Z,2.80
2022-08-22T21:04:42.698Z,2.50
2022-08-22T21:07:12.180Z,3.10
2022-08-22T21:09:57.616Z,2.73
2022-08-22T21:12:26.415Z,2.43
2022-08-22T21:14:54.330Z,2.60
2022-08-22T21:17:29.280Z,2.67
2022-08-22T21:20:18.026Z,2.60
2022-08-22T21:22:47.317Z,2.73
2022-08-22T21:25:15.902Z,2.93
2022-08-22T21:27:48.600Z,2.80
2022-08-22T21:30:26.097Z,3.00
2022-08-22T21:32:56.246Z,2.90
2022-08-22T21:35:28.939Z,2.90
2022-08-22T21:37:59.651Z,3.10
2022-08-22T21:40:33.792Z,3.10
2022-08-22T21:43:09.012Z,3.43
2022-08-22T21:45:44.749Z,2.97
2022-08-22T21:48:32.451Z,2.83
2022-08-22T21:51:35.852Z,2.90
2022-08-22T21:54:28.739Z,3.20
2022-08-22T21:56:58.586Z,2.87
2022-08-22T21:59:40.167Z,3.10
2022-08-22T22:02:34.129Z,3.03
2022-08-22T22:05:05.469Z,3.27
2022-08-22T22:07:37.766Z,3.10
2022-08-22T22:10:10.332Z,2.50
2022-08-22T22:12:40.730Z,3.80
2022-08-22T22:15:10.426Z,2.97
2022-08-22T22:17:38.295Z,2.73
2022-08-22T22:20:08.365Z,3.67
2022-08-22T22:22:36.932Z,3.00
2022-08-22T22:25:40.127Z,3.50
2022-08-22T22:27:59.793Z,3.20
2022-08-22T22:30:27.829Z,3.70
2022-08-22T22:32:55.690Z,2.80
2022-08-22T22:35:23.562Z,3.70
2022-08-22T22:37:51.465Z,2.93
2022-08-22T22:40:20.798Z,3.57
2022-08-22T22:42:48.692Z,3.10
2022-08-22T22:45:16.591Z,3.37
2022-08-22T22:47:44.437Z,3.27
2022-08-22T22:50:12.315Z,3.13
2022-08-22T22:52:41.063Z,3.70
2022-08-22T22:55:10.534Z,3.23
2022-08-22T22:57:46.864Z,3.73
2022-08-22T23:00:16.200Z,3.40
2022-08-22T23:02:44.219Z,3.47
2022-08-22T23:05:12.632Z,3.40
2022-08-22T23:07:41.124Z,3.47
2022-08-22T23:10:10.089Z,3.53
2022-08-22T23:12:39.812Z,3.63
2022-08-22T23:15:09.230Z,3.40
2022-08-22T23:17:37.650Z,2.97
2022-08-22T23:20:06.551Z,3.57
2022-08-22T23:22:34.724Z,3.97
2022-08-22T23:25:02.725Z,3.47
2022-08-22T23:27:31.467Z,4.13
2022-08-22T23:30:02.202Z,3.83
2022-08-22T23:32:30.099Z,3.70
2022-08-22T23:34:58.157Z,3.60
2022-08-22T23:37:26.049Z,3.93
2022-08-22T23:39:54.001Z,3.53
2022-08-22T23:42:22.098Z,3.70
2022-08-22T23:44:49.988Z,3.87
2022-08-22T23:47:19.243Z,3.47
2022-08-22T23:49:47.285Z,3.20
2022-08-22T23:52:15.388Z,3.93
2022-08-22T23:54:43.442Z,3.50
2022-08-22T23:57:12.733Z,3.17
2022-08-22T23:59:46.532Z,3.30
